Urb San Pedro, Puerto Rico
Current Conditions -  °F | °C
As of 4:53 PM on Thursday 23 Oct 2014 (Local Time) from TJNR Reporting Station
Broken Clouds Broken Clouds  
Wind Chill: 84°   Ceiling: 6000
Heat Index: 92°   Visibility: 10mi
Dew Point: 75°   Wind: 10mph
Humidity: 74%   Direction: 110°ESE
Pressure: 29.91"   Gusts: NA
Location:  18.3304°N, 65.6573°W
Report Text: TJNR 232053Z AUTO 11009KT 10SM FEW027 SCT044 BKN060 29/24 A2991 RMK AO2 SLP128 T02890239 55003 $
Loading
Personal Weather Stations






























Interactive Weather Map
Tropical Storm Tracking
New forecast layout! Learn more

10-Day Weather Forecast

Advertisements
Track Severe Weather on mobile